sensor_id;sensor_type;location;lat;lon;timestamp;P1;durP1;ratioP1;P2;durP2;ratioP2
58974;SDS011;44751;52.236;5.178;2023-05-07T07:46:17;20.85;;;16.67;;
58974;SDS011;44751;52.236;5.178;2023-05-07T07:48:44;23.05;;;16.98;;
58974;SDS011;44751;52.236;5.178;2023-05-07T07:51:11;17.65;;;15.90;;
58974;SDS011;44751;52.236;5.178;2023-05-07T07:53:38;18.92;;;16.92;;
58974;SDS011;44751;52.236;5.178;2023-05-07T07:56:06;19.15;;;17.15;;
58974;SDS011;44751;52.236;5.178;2023-05-07T07:58:40;18.77;;;16.77;;
58974;SDS011;44751;52.236;5.178;2023-05-07T08:01:07;18.08;;;16.17;;
58974;SDS011;44751;52.236;5.178;2023-05-07T08:03:35;19.60;;;17.02;;
58974;SDS011;44751;52.236;5.178;2023-05-07T08:06:01;18.60;;;16.38;;
58974;SDS011;44751;52.236;5.178;2023-05-07T08:08:32;19.88;;;17.33;;
58974;SDS011;44751;52.236;5.178;2023-05-07T08:10:59;18.50;;;16.60;;
58974;SDS011;44751;52.236;5.178;2023-05-07T08:13:25;18.90;;;16.95;;
58974;SDS011;44751;52.236;5.178;2023-05-07T08:15:52;19.25;;;17.25;;
58974;SDS011;44751;52.236;5.178;2023-05-07T08:18:18;20.58;;;18.35;;
58974;SDS011;44751;52.236;5.178;2023-05-07T08:20:49;19.92;;;17.80;;
58974;SDS011;44751;52.236;5.178;2023-05-07T08:23:15;18.92;;;16.90;;
58974;SDS011;44751;52.236;5.178;2023-05-07T08:25:42;20.42;;;17.65;;
58974;SDS011;44751;52.236;5.178;2023-05-07T08:28:08;20.98;;;18.77;;
58974;SDS011;44751;52.236;5.178;2023-05-07T08:30:35;20.70;;;18.55;;
58974;SDS011;44751;52.236;5.178;2023-05-07T08:33:31;23.98;;;19.17;;
58974;SDS011;44751;52.236;5.178;2023-05-07T08:36:03;20.80;;;18.48;;
58974;SDS011;44751;52.236;5.178;2023-05-07T08:38:31;19.20;;;16.38;;
58974;SDS011;44751;52.236;5.178;2023-05-07T08:40:57;19.63;;;17.45;;
58974;SDS011;44751;52.236;5.178;2023-05-07T08:43:26;20.20;;;17.75;;
58974;SDS011;44751;52.236;5.178;2023-05-07T08:45:53;18.48;;;16.58;;
58974;SDS011;44751;52.236;5.178;2023-05-07T08:48:21;20.63;;;17.95;;
58974;SDS011;44751;52.236;5.178;2023-05-07T08:50:51;18.40;;;16.60;;
58974;SDS011;44751;52.236;5.178;2023-05-07T08:53:17;18.70;;;16.88;;
58974;SDS011;44751;52.236;5.178;2023-05-07T08:55:45;20.30;;;17.60;;
58974;SDS011;44751;52.236;5.178;2023-05-07T08:58:12;19.40;;;17.33;;
58974;SDS011;44751;52.236;5.178;2023-05-07T09:00:44;18.80;;;16.80;;
58974;SDS011;44751;52.236;5.178;2023-05-07T09:03:12;18.52;;;16.63;;
58974;SDS011;44751;52.236;5.178;2023-05-07T09:05:39;19.05;;;17.13;;
58974;SDS011;44751;52.236;5.178;2023-05-07T10:51:31;9.90;;;8.27;;
58974;SDS011;44751;52.236;5.178;2023-05-07T10:56:37;11.60;;;9.35;;
58974;SDS011;44751;52.236;5.178;2023-05-07T10:59:29;11.30;;;9.23;;
58974;SDS011;44751;52.236;5.178;2023-05-07T11:02:00;8.43;;;7.32;;
58974;SDS011;44751;52.236;5.178;2023-05-07T11:04:42;9.73;;;6.85;;
58974;SDS011;44751;52.236;5.178;2023-05-07T11:07:20;7.22;;;6.28;;
58974;SDS011;44751;52.236;5.178;2023-05-07T11:15:14;6.97;;;5.18;;
58974;SDS011;44751;52.236;5.178;2023-05-07T11:17:59;7.38;;;5.20;;
58974;SDS011;44751;52.236;5.178;2023-05-07T11:26:04;5.38;;;3.67;;
58974;SDS011;44751;52.236;5.178;2023-05-07T11:28:59;8.02;;;3.58;;
58974;SDS011;44751;52.236;5.178;2023-05-07T11:31:26;6.85;;;3.88;;
58974;SDS011;44751;52.236;5.178;2023-05-07T11:33:54;6.25;;;3.70;;
58974;SDS011;44751;52.236;5.178;2023-05-07T11:36:22;4.45;;;3.17;;
58974;SDS011;44751;52.236;5.178;2023-05-07T11:38:54;5.68;;;3.92;;
58974;SDS011;44751;52.236;5.178;2023-05-07T11:41:21;5.05;;;3.15;;
58974;SDS011;44751;52.236;5.178;2023-05-07T11:43:54;5.75;;;3.72;;
58974;SDS011;44751;52.236;5.178;2023-05-07T11:46:22;7.43;;;3.50;;
58974;SDS011;44751;52.236;5.178;2023-05-07T11:48:57;6.57;;;3.78;;
58974;SDS011;44751;52.236;5.178;2023-05-07T11:51:24;6.72;;;3.60;;
58974;SDS011;44751;52.236;5.178;2023-05-07T11:53:52;4.63;;;2.97;;
58974;SDS011;44751;52.236;5.178;2023-05-07T11:56:21;3.95;;;2.30;;
58974;SDS011;44751;52.236;5.178;2023-05-07T11:58:48;6.05;;;3.05;;
58974;SDS011;44751;52.236;5.178;2023-05-07T12:01:16;4.13;;;2.72;;
58974;SDS011;44751;52.236;5.178;2023-05-07T12:03:43;2.97;;;2.38;;
58974;SDS011;44751;52.236;5.178;2023-05-07T12:06:12;6.22;;;3.20;;
58974;SDS011;44751;52.236;5.178;2023-05-07T12:08:41;7.13;;;2.90;;
58974;SDS011;44751;52.236;5.178;2023-05-07T12:11:12;5.57;;;3.25;;
58974;SDS011;44751;52.236;5.178;2023-05-07T12:13:42;4.70;;;3.25;;
58974;SDS011;44751;52.236;5.178;2023-05-07T12:16:09;4.75;;;3.00;;
58974;SDS011;44751;52.236;5.178;2023-05-07T12:18:36;4.60;;;2.97;;
58974;SDS011;44751;52.236;5.178;2023-05-07T12:21:05;4.20;;;3.80;;
58974;SDS011;44751;52.236;5.178;2023-05-07T12:23:33;5.97;;;4.55;;
58974;SDS011;44751;52.236;5.178;2023-05-07T12:26:01;6.93;;;3.40;;
58974;SDS011;44751;52.236;5.178;2023-05-07T12:28:28;6.90;;;3.90;;
58974;SDS011;44751;52.236;5.178;2023-05-07T12:30:57;5.68;;;3.10;;
58974;SDS011;44751;52.236;5.178;2023-05-07T12:33:25;9.07;;;3.58;;
58974;SDS011;44751;52.236;5.178;2023-05-07T12:35:53;4.75;;;3.40;;
58974;SDS011;44751;52.236;5.178;2023-05-07T12:38:21;4.22;;;2.72;;
58974;SDS011;44751;52.236;5.178;2023-05-07T12:40:53;6.38;;;5.43;;
58974;SDS011;44751;52.236;5.178;2023-05-07T12:43:21;7.47;;;5.50;;
58974;SDS011;44751;52.236;5.178;2023-05-07T12:45:54;6.72;;;4.57;;
58974;SDS011;44751;52.236;5.178;2023-05-07T12:48:22;6.47;;;4.85;;
58974;SDS011;44751;52.236;5.178;2023-05-07T12:50:52;6.88;;;5.35;;
58974;SDS011;44751;52.236;5.178;2023-05-07T12:53:20;5.70;;;4.82;;
58974;SDS011;44751;52.236;5.178;2023-05-07T12:55:49;6.45;;;4.97;;
58974;SDS011;44751;52.236;5.178;2023-05-07T12:58:30;6.07;;;4.68;;
58974;SDS011;44751;52.236;5.178;2023-05-07T13:01:00;7.03;;;5.50;;
58974;SDS011;44751;52.236;5.178;2023-05-07T13:03:28;10.90;;;6.22;;
58974;SDS011;44751;52.236;5.178;2023-05-07T13:05:57;8.68;;;5.45;;
58974;SDS011;44751;52.236;5.178;2023-05-07T13:10:57;7.53;;;5.40;;
58974;SDS011;44751;52.236;5.178;2023-05-07T13:13:27;12.20;;;6.50;;
58974;SDS011;44751;52.236;5.178;2023-05-07T13:15:54;10.45;;;6.10;;
58974;SDS011;44751;52.236;5.178;2023-05-07T13:18:21;7.90;;;4.85;;
58974;SDS011;44751;52.236;5.178;2023-05-07T13:20:57;6.35;;;4.13;;
58974;SDS011;44751;52.236;5.178;2023-05-07T13:23:24;6.13;;;5.00;;
58974;SDS011;44751;52.236;5.178;2023-05-07T13:25:50;6.32;;;4.82;;
58974;SDS011;44751;52.236;5.178;2023-05-07T13:28:18;8.05;;;5.20;;
58974;SDS011;44751;52.236;5.178;2023-05-07T13:30:47;9.35;;;6.18;;
58974;SDS011;44751;52.236;5.178;2023-05-07T13:33:17;7.20;;;4.85;;
58974;SDS011;44751;52.236;5.178;2023-05-07T13:35:44;5.85;;;5.03;;
58974;SDS011;44751;52.236;5.178;2023-05-07T13:38:11;7.78;;;5.68;;
58974;SDS011;44751;52.236;5.178;2023-05-07T13:40:37;7.32;;;5.50;;
58974;SDS011;44751;52.236;5.178;2023-05-07T13:43:06;7.45;;;6.18;;
58974;SDS011;44751;52.236;5.178;2023-05-07T13:45:35;7.38;;;5.70;;
58974;SDS011;44751;52.236;5.178;2023-05-07T13:48:01;6.85;;;5.13;;
58974;SDS011;44751;52.236;5.178;2023-05-07T13:50:28;8.40;;;5.97;;
58974;SDS011;44751;52.236;5.178;2023-05-07T13:52:55;6.43;;;4.75;;
58974;SDS011;44751;52.236;5.178;2023-05-07T13:55:22;7.28;;;5.45;;
58974;SDS011;44751;52.236;5.178;2023-05-07T13:57:58;9.60;;;5.95;;
58974;SDS011;44751;52.236;5.178;2023-05-07T14:00:26;9.23;;;5.97;;
58974;SDS011;44751;52.236;5.178;2023-05-07T14:02:53;6.63;;;5.25;;
58974;SDS011;44751;52.236;5.178;2023-05-07T14:05:21;9.85;;;5.95;;
58974;SDS011;44751;52.236;5.178;2023-05-07T14:07:50;10.10;;;5.60;;
58974;SDS011;44751;52.236;5.178;2023-05-07T14:10:17;11.18;;;6.80;;
58974;SDS011;44751;52.236;5.178;2023-05-07T14:12:45;9.95;;;6.88;;
58974;SDS011;44751;52.236;5.178;2023-05-07T14:15:11;7.68;;;6.05;;
58974;SDS011;44751;52.236;5.178;2023-05-07T14:17:38;10.10;;;6.32;;
58974;SDS011;44751;52.236;5.178;2023-05-07T14:20:04;10.75;;;5.22;;
58974;SDS011;44751;52.236;5.178;2023-05-07T14:22:32;9.27;;;6.50;;
58974;SDS011;44751;52.236;5.178;2023-05-07T14:24:58;9.48;;;6.13;;
58974;SDS011;44751;52.236;5.178;2023-05-07T14:27:25;9.70;;;6.10;;
58974;SDS011;44751;52.236;5.178;2023-05-07T14:29:51;10.38;;;7.72;;
58974;SDS011;44751;52.236;5.178;2023-05-07T14:32:21;9.07;;;7.88;;
58974;SDS011;44751;52.236;5.178;2023-05-07T14:34:48;11.80;;;7.93;;
58974;SDS011;44751;52.236;5.178;2023-05-07T14:37:15;10.88;;;8.50;;
58974;SDS011;44751;52.236;5.178;2023-05-07T14:39:41;13.57;;;8.80;;
58974;SDS011;44751;52.236;5.178;2023-05-07T14:42:08;12.07;;;9.40;;
58974;SDS011;44751;52.236;5.178;2023-05-07T14:44:34;14.13;;;9.82;;
58974;SDS011;44751;52.236;5.178;2023-05-07T14:47:01;13.00;;;9.30;;
58974;SDS011;44751;52.236;5.178;2023-05-07T14:49:28;17.65;;;10.10;;
58974;SDS011;44751;52.236;5.178;2023-05-07T14:51:56;14.70;;;10.80;;
58974;SDS011;44751;52.236;5.178;2023-05-07T14:54:24;17.92;;;10.77;;
58974;SDS011;44751;52.236;5.178;2023-05-07T14:56:50;13.23;;;9.23;;
58974;SDS011;44751;52.236;5.178;2023-05-07T14:59:20;25.23;;;11.27;;
58974;SDS011;44751;52.236;5.178;2023-05-07T15:01:47;15.30;;;10.30;;
58974;SDS011;44751;52.236;5.178;2023-05-07T15:04:14;14.57;;;11.10;;
58974;SDS011;44751;52.236;5.178;2023-05-07T15:06:40;17.10;;;12.18;;
58974;SDS011;44751;52.236;5.178;2023-05-07T15:09:07;15.35;;;11.52;;
58974;SDS011;44751;52.236;5.178;2023-05-07T15:11:38;16.33;;;12.68;;
58974;SDS011;44751;52.236;5.178;2023-05-07T15:14:04;14.88;;;9.60;;
58974;SDS011;44751;52.236;5.178;2023-05-07T15:16:31;12.32;;;6.30;;
58974;SDS011;44751;52.236;5.178;2023-05-07T15:18:57;8.55;;;5.22;;
58974;SDS011;44751;52.236;5.178;2023-05-07T15:21:24;6.35;;;4.70;;
58974;SDS011;44751;52.236;5.178;2023-05-07T15:24:02;4.93;;;3.88;;
58974;SDS011;44751;52.236;5.178;2023-05-07T15:26:28;6.90;;;4.28;;
58974;SDS011;44751;52.236;5.178;2023-05-07T15:28:55;7.95;;;3.35;;
58974;SDS011;44751;52.236;5.178;2023-05-07T15:31:29;4.50;;;2.92;;
58974;SDS011;44751;52.236;5.178;2023-05-07T15:33:59;4.30;;;2.63;;
58974;SDS011;44751;52.236;5.178;2023-05-07T15:36:26;6.00;;;3.20;;
58974;SDS011;44751;52.236;5.178;2023-05-07T15:38:52;5.97;;;3.78;;
58974;SDS011;44751;52.236;5.178;2023-05-07T15:41:19;5.10;;;3.70;;
58974;SDS011;44751;52.236;5.178;2023-05-07T15:43:51;5.25;;;3.83;;
58974;SDS011;44751;52.236;5.178;2023-05-07T15:46:19;6.45;;;3.90;;
58974;SDS011;44751;52.236;5.178;2023-05-07T15:48:46;5.32;;;3.63;;
58974;SDS011;44751;52.236;5.178;2023-05-07T15:51:13;6.32;;;4.22;;
58974;SDS011;44751;52.236;5.178;2023-05-07T15:53:39;7.25;;;3.85;;
58974;SDS011;44751;52.236;5.178;2023-05-07T15:56:12;6.72;;;3.70;;
58974;SDS011;44751;52.236;5.178;2023-05-07T15:58:38;4.05;;;3.20;;
58974;SDS011;44751;52.236;5.178;2023-05-07T16:01:05;7.72;;;3.30;;
58974;SDS011;44751;52.236;5.178;2023-05-07T16:03:31;4.43;;;3.58;;
58974;SDS011;44751;52.236;5.178;2023-05-07T16:05:57;6.15;;;3.55;;
58974;SDS011;44751;52.236;5.178;2023-05-07T16:08:28;5.43;;;3.67;;
58974;SDS011;44751;52.236;5.178;2023-05-07T16:10:54;6.75;;;4.10;;
58974;SDS011;44751;52.236;5.178;2023-05-07T16:13:21;4.07;;;3.67;;
58974;SDS011;44751;52.236;5.178;2023-05-07T16:15:48;6.93;;;4.07;;
58974;SDS011;44751;52.236;5.178;2023-05-07T16:18:15;5.07;;;3.70;;
58974;SDS011;44751;52.236;5.178;2023-05-07T16:20:55;8.38;;;4.38;;
58974;SDS011;44751;52.236;5.178;2023-05-07T16:23:24;8.40;;;4.90;;
58974;SDS011;44751;52.236;5.178;2023-05-07T16:25:50;7.50;;;5.25;;
58974;SDS011;44751;52.236;5.178;2023-05-07T16:28:19;5.95;;;4.60;;
58974;SDS011;44751;52.236;5.178;2023-05-07T16:30:47;4.95;;;4.28;;
58974;SDS011;44751;52.236;5.178;2023-05-07T16:33:14;7.07;;;4.57;;
58974;SDS011;44751;52.236;5.178;2023-05-07T16:35:40;6.88;;;3.92;;
58974;SDS011;44751;52.236;5.178;2023-05-07T16:38:11;7.05;;;4.20;;
58974;SDS011;44751;52.236;5.178;2023-05-07T16:40:41;11.50;;;4.55;;
58974;SDS011;44751;52.236;5.178;2023-05-07T16:43:08;5.22;;;3.75;;
58974;SDS011;44751;52.236;5.178;2023-05-07T16:45:35;6.90;;;4.43;;
58974;SDS011;44751;52.236;5.178;2023-05-07T16:48:01;6.03;;;4.25;;
58974;SDS011;44751;52.236;5.178;2023-05-07T16:50:28;6.32;;;4.00;;
58974;SDS011;44751;52.236;5.178;2023-05-07T16:52:55;3.80;;;3.40;;
58974;SDS011;44751;52.236;5.178;2023-05-07T16:55:24;7.13;;;3.75;;
58974;SDS011;44751;52.236;5.178;2023-05-07T16:57:51;3.88;;;3.20;;
58974;SDS011;44751;52.236;5.178;2023-05-07T17:00:17;3.85;;;3.05;;
58974;SDS011;44751;52.236;5.178;2023-05-07T17:02:44;2.97;;;2.13;;
58974;SDS011;44751;52.236;5.178;2023-05-07T17:05:10;3.55;;;2.60;;
58974;SDS011;44751;52.236;5.178;2023-05-07T17:07:37;3.65;;;3.28;;
58974;SDS011;44751;52.236;5.178;2023-05-07T17:10:06;6.10;;;4.63;;
58974;SDS011;44751;52.236;5.178;2023-05-07T17:12:33;5.70;;;4.38;;
58974;SDS011;44751;52.236;5.178;2023-05-07T17:14:59;5.78;;;3.97;;
58974;SDS011;44751;52.236;5.178;2023-05-07T17:17:26;8.68;;;4.40;;
58974;SDS011;44751;52.236;5.178;2023-05-07T17:20:05;4.75;;;3.60;;
58974;SDS011;44751;52.236;5.178;2023-05-07T17:22:32;5.90;;;3.95;;
58974;SDS011;44751;52.236;5.178;2023-05-07T17:24:59;4.25;;;2.95;;
58974;SDS011;44751;52.236;5.178;2023-05-07T17:27:28;2.65;;;2.42;;
58974;SDS011;44751;52.236;5.178;2023-05-07T17:29:55;3.53;;;2.10;;
58974;SDS011;44751;52.236;5.178;2023-05-07T17:32:21;5.78;;;2.08;;
58974;SDS011;44751;52.236;5.178;2023-05-07T17:34:48;2.00;;;1.55;;
58974;SDS011;44751;52.236;5.178;2023-05-07T17:37:14;2.78;;;1.95;;
58974;SDS011;44751;52.236;5.178;2023-05-07T17:39:41;3.30;;;2.40;;
58974;SDS011;44751;52.236;5.178;2023-05-07T17:42:16;3.00;;;2.63;;
58974;SDS011;44751;52.236;5.178;2023-05-07T17:44:43;3.35;;;2.60;;
58974;SDS011;44751;52.236;5.178;2023-05-07T17:47:09;2.78;;;2.55;;
58974;SDS011;44751;52.236;5.178;2023-05-07T17:49:38;3.17;;;2.50;;
58974;SDS011;44751;52.236;5.178;2023-05-07T17:52:04;2.88;;;2.50;;
58974;SDS011;44751;52.236;5.178;2023-05-07T17:54:31;4.75;;;2.35;;
58974;SDS011;44751;52.236;5.178;2023-05-07T17:56:58;2.90;;;2.60;;
58974;SDS011;44751;52.236;5.178;2023-05-07T17:59:25;2.45;;;2.13;;
58974;SDS011;44751;52.236;5.178;2023-05-07T18:01:51;3.33;;;2.20;;
58974;SDS011;44751;52.236;5.178;2023-05-07T18:04:17;3.53;;;2.35;;
58974;SDS011;44751;52.236;5.178;2023-05-07T18:06:45;2.40;;;2.20;;
58974;SDS011;44751;52.236;5.178;2023-05-07T18:09:12;4.60;;;2.00;;
58974;SDS011;44751;52.236;5.178;2023-05-07T18:11:38;3.50;;;1.75;;
58974;SDS011;44751;52.236;5.178;2023-05-07T18:14:05;2.03;;;1.60;;
58974;SDS011;44751;52.236;5.178;2023-05-07T18:16:31;1.80;;;1.70;;
58974;SDS011;44751;52.236;5.178;2023-05-07T18:18:57;2.28;;;1.80;;
58974;SDS011;44751;52.236;5.178;2023-05-07T18:21:24;2.20;;;1.95;;
58974;SDS011;44751;52.236;5.178;2023-05-07T18:23:51;1.92;;;1.80;;
58974;SDS011;44751;52.236;5.178;2023-05-07T18:26:17;3.58;;;1.98;;
58974;SDS011;44751;52.236;5.178;2023-05-07T18:28:44;2.38;;;2.00;;
58974;SDS011;44751;52.236;5.178;2023-05-07T18:31:10;2.72;;;2.17;;
58974;SDS011;44751;52.236;5.178;2023-05-07T18:33:37;3.33;;;2.30;;
58974;SDS011;44751;52.236;5.178;2023-05-07T18:36:06;3.72;;;2.00;;
58974;SDS011;44751;52.236;5.178;2023-05-07T18:38:32;2.58;;;2.05;;
58974;SDS011;44751;52.236;5.178;2023-05-07T18:40:59;2.60;;;2.05;;
58974;SDS011;44751;52.236;5.178;2023-05-07T18:43:27;2.60;;;2.22;;
58974;SDS011;44751;52.236;5.178;2023-05-07T18:45:54;2.33;;;2.13;;
58974;SDS011;44751;52.236;5.178;2023-05-07T18:48:28;3.25;;;2.30;;
58974;SDS011;44751;52.236;5.178;2023-05-07T18:50:55;5.60;;;2.50;;
58974;SDS011;44751;52.236;5.178;2023-05-07T18:53:22;4.20;;;2.30;;
58974;SDS011;44751;52.236;5.178;2023-05-07T18:55:49;3.65;;;2.72;;
58974;SDS011;44751;52.236;5.178;2023-05-07T18:58:16;3.88;;;2.85;;
58974;SDS011;44751;52.236;5.178;2023-05-07T19:00:47;3.40;;;2.70;;
58974;SDS011;44751;52.236;5.178;2023-05-07T19:03:14;2.80;;;2.50;;
58974;SDS011;44751;52.236;5.178;2023-05-07T19:05:41;2.90;;;2.70;;
58974;SDS011;44751;52.236;5.178;2023-05-07T19:08:09;3.22;;;3.00;;
58974;SDS011;44751;52.236;5.178;2023-05-07T19:10:38;3.85;;;3.22;;
58974;SDS011;44751;52.236;5.178;2023-05-07T19:13:10;3.10;;;2.80;;
58974;SDS011;44751;52.236;5.178;2023-05-07T19:15:37;3.50;;;3.10;;
58974;SDS011;44751;52.236;5.178;2023-05-07T19:18:03;3.40;;;3.13;;
58974;SDS011;44751;52.236;5.178;2023-05-07T19:20:30;3.42;;;3.13;;
58974;SDS011;44751;52.236;5.178;2023-05-07T19:23:00;4.53;;;3.38;;
58974;SDS011;44751;52.236;5.178;2023-05-07T19:25:27;5.65;;;3.25;;
58974;SDS011;44751;52.236;5.178;2023-05-07T19:27:53;3.88;;;3.47;;
58974;SDS011;44751;52.236;5.178;2023-05-07T19:30:20;4.60;;;4.20;;
58974;SDS011;44751;52.236;5.178;2023-05-07T19:32:47;4.38;;;3.92;;
58974;SDS011;44751;52.236;5.178;2023-05-07T19:35:13;4.53;;;4.13;;
58974;SDS011;44751;52.236;5.178;2023-05-07T19:37:39;5.32;;;4.60;;
58974;SDS011;44751;52.236;5.178;2023-05-07T19:40:08;5.07;;;4.65;;
58974;SDS011;44751;52.236;5.178;2023-05-07T19:42:35;6.70;;;5.03;;
58974;SDS011;44751;52.236;5.178;2023-05-07T19:45:03;5.32;;;4.82;;
58974;SDS011;44751;52.236;5.178;2023-05-07T19:47:30;5.90;;;4.50;;
58974;SDS011;44751;52.236;5.178;2023-05-07T19:49:56;5.40;;;4.90;;
58974;SDS011;44751;52.236;5.178;2023-05-07T19:52:25;5.60;;;5.05;;
58974;SDS011;44751;52.236;5.178;2023-05-07T19:54:51;7.07;;;6.15;;
58974;SDS011;44751;52.236;5.178;2023-05-07T19:57:18;6.55;;;5.90;;
58974;SDS011;44751;52.236;5.178;2023-05-07T19:59:45;7.07;;;6.47;;
58974;SDS011;44751;52.236;5.178;2023-05-07T20:02:19;6.75;;;6.07;;
58974;SDS011;44751;52.236;5.178;2023-05-07T20:04:45;7.22;;;6.47;;
58974;SDS011;44751;52.236;5.178;2023-05-07T20:07:12;7.78;;;6.20;;
58974;SDS011;44751;52.236;5.178;2023-05-07T20:09:38;7.10;;;6.45;;
58974;SDS011;44751;52.236;5.178;2023-05-07T20:12:05;6.40;;;5.80;;
58974;SDS011;44751;52.236;5.178;2023-05-07T20:14:42;8.20;;;6.85;;
58974;SDS011;44751;52.236;5.178;2023-05-07T20:17:08;8.23;;;7.18;;
58974;SDS011;44751;52.236;5.178;2023-05-07T20:19:34;8.00;;;6.90;;
58974;SDS011;44751;52.236;5.178;2023-05-07T20:22:01;8.32;;;7.53;;
58974;SDS011;44751;52.236;5.178;2023-05-07T20:24:27;7.82;;;7.03;;
58974;SDS011;44751;52.236;5.178;2023-05-07T20:26:54;7.82;;;7.03;;
58974;SDS011;44751;52.236;5.178;2023-05-07T20:29:23;7.88;;;6.95;;
58974;SDS011;44751;52.236;5.178;2023-05-07T20:31:49;9.63;;;7.05;;
58974;SDS011;44751;52.236;5.178;2023-05-07T20:34:16;7.70;;;7.00;;
58974;SDS011;44751;52.236;5.178;2023-05-07T20:36:42;8.45;;;7.20;;
58974;SDS011;44751;52.236;5.178;2023-05-07T20:39:14;7.90;;;7.05;;
58974;SDS011;44751;52.236;5.178;2023-05-07T20:41:41;8.23;;;7.20;;
58974;SDS011;44751;52.236;5.178;2023-05-07T20:44:09;8.77;;;7.97;;
58974;SDS011;44751;52.236;5.178;2023-05-07T20:46:36;9.40;;;8.10;;
58974;SDS011;44751;52.236;5.178;2023-05-07T20:49:03;9.70;;;7.85;;
58974;SDS011;44751;52.236;5.178;2023-05-07T20:51:32;8.75;;;7.68;;
58974;SDS011;44751;52.236;5.178;2023-05-07T20:53:59;12.15;;;8.95;;
58974;SDS011;44751;52.236;5.178;2023-05-07T20:56:25;8.43;;;7.63;;
58974;SDS011;44751;52.236;5.178;2023-05-07T20:58:51;8.75;;;7.53;;
58974;SDS011;44751;52.236;5.178;2023-05-07T21:01:18;11.23;;;7.82;;
58974;SDS011;44751;52.236;5.178;2023-05-07T21:03:44;10.88;;;8.25;;
58974;SDS011;44751;52.236;5.178;2023-05-07T21:06:11;8.85;;;7.47;;
58974;SDS011;44751;52.236;5.178;2023-05-07T21:08:37;7.57;;;6.63;;
58974;SDS011;44751;52.236;5.178;2023-05-07T21:11:04;7.88;;;5.90;;
58974;SDS011;44751;52.236;5.178;2023-05-07T21:13:31;6.25;;;5.65;;
58974;SDS011;44751;52.236;5.178;2023-05-07T21:15:58;6.40;;;5.80;;
58974;SDS011;44751;52.236;5.178;2023-05-07T21:18:28;5.38;;;4.88;;
58974;SDS011;44751;52.236;5.178;2023-05-07T21:20:54;5.43;;;4.90;;
58974;SDS011;44751;52.236;5.178;2023-05-07T21:23:21;6.18;;;5.03;;
58974;SDS011;44751;52.236;5.178;2023-05-07T21:25:48;4.93;;;4.43;;
58974;SDS011;44751;52.236;5.178;2023-05-07T21:28:15;4.90;;;4.50;;
58974;SDS011;44751;52.236;5.178;2023-05-07T21:30:45;6.38;;;5.03;;
58974;SDS011;44751;52.236;5.178;2023-05-07T21:33:12;4.88;;;4.47;;
58974;SDS011;44751;52.236;5.178;2023-05-07T21:35:38;5.38;;;4.88;;
58974;SDS011;44751;52.236;5.178;2023-05-07T21:38:05;5.47;;;4.97;;
58974;SDS011;44751;52.236;5.178;2023-05-07T21:40:31;6.15;;;5.53;;
58974;SDS011;44751;52.236;5.178;2023-05-07T21:42:58;6.50;;;5.75;;
58974;SDS011;44751;52.236;5.178;2023-05-07T21:45:27;6.75;;;5.85;;
58974;SDS011;44751;52.236;5.178;2023-05-07T21:47:54;5.93;;;5.43;;
58974;SDS011;44751;52.236;5.178;2023-05-07T21:50:21;7.88;;;5.95;;
58974;SDS011;44751;52.236;5.178;2023-05-07T21:52:48;6.13;;;5.53;;
58974;SDS011;44751;52.236;5.178;2023-05-07T21:55:18;7.18;;;5.97;;
58974;SDS011;44751;52.236;5.178;2023-05-07T21:57:47;6.60;;;5.57;;
58974;SDS011;44751;52.236;5.178;2023-05-07T22:00:13;6.35;;;5.32;;
58974;SDS011;44751;52.236;5.178;2023-05-07T22:02:40;7.10;;;5.40;;
58974;SDS011;44751;52.236;5.178;2023-05-07T22:05:07;7.70;;;5.50;;
58974;SDS011;44751;52.236;5.178;2023-05-07T22:07:34;6.57;;;5.97;;
58974;SDS011;44751;52.236;5.178;2023-05-07T22:10:05;6.65;;;6.05;;
58974;SDS011;44751;52.236;5.178;2023-05-07T22:12:32;7.22;;;5.78;;
58974;SDS011;44751;52.236;5.178;2023-05-07T22:14:59;6.50;;;6.00;;
58974;SDS011;44751;52.236;5.178;2023-05-07T22:17:25;7.20;;;6.50;;
58974;SDS011;44751;52.236;5.178;2023-05-07T22:19:52;7.15;;;6.55;;
58974;SDS011;44751;52.236;5.178;2023-05-07T22:22:18;6.80;;;6.20;;
58974;SDS011;44751;52.236;5.178;2023-05-07T22:24:47;8.15;;;6.60;;
58974;SDS011;44751;52.236;5.178;2023-05-07T22:27:14;7.50;;;6.68;;
58974;SDS011;44751;52.236;5.178;2023-05-07T22:29:40;7.25;;;6.60;;
58974;SDS011;44751;52.236;5.178;2023-05-07T22:32:07;8.23;;;7.15;;
58974;SDS011;44751;52.236;5.178;2023-05-07T22:34:33;9.40;;;7.25;;
58974;SDS011;44751;52.236;5.178;2023-05-07T22:36:59;8.25;;;7.28;;
58974;SDS011;44751;52.236;5.178;2023-05-07T22:39:26;7.90;;;7.20;;
58974;SDS011;44751;52.236;5.178;2023-05-07T22:41:58;8.70;;;7.03;;
58974;SDS011;44751;52.236;5.178;2023-05-07T22:44:24;8.25;;;6.22;;
58974;SDS011;44751;52.236;5.178;2023-05-07T22:46:51;8.45;;;7.10;;
58974;SDS011;44751;52.236;5.178;2023-05-07T22:49:17;7.80;;;6.78;;
58974;SDS011;44751;52.236;5.178;2023-05-07T22:51:44;8.40;;;7.35;;
58974;SDS011;44751;52.236;5.178;2023-05-07T22:54:10;11.15;;;7.00;;
58974;SDS011;44751;52.236;5.178;2023-05-07T22:56:37;7.50;;;6.75;;
58974;SDS011;44751;52.236;5.178;2023-05-07T22:59:04;7.30;;;6.60;;
58974;SDS011;44751;52.236;5.178;2023-05-07T23:01:37;7.72;;;7.03;;
58974;SDS011;44751;52.236;5.178;2023-05-07T23:04:04;7.80;;;6.75;;
58974;SDS011;44751;52.236;5.178;2023-05-07T23:06:30;8.80;;;7.45;;
58974;SDS011;44751;52.236;5.178;2023-05-07T23:08:57;7.68;;;6.97;;
58974;SDS011;44751;52.236;5.178;2023-05-07T23:11:23;8.05;;;7.25;;
58974;SDS011;44751;52.236;5.178;2023-05-07T23:13:54;9.05;;;7.07;;
58974;SDS011;44751;52.236;5.178;2023-05-07T23:16:20;8.80;;;7.15;;
58974;SDS011;44751;52.236;5.178;2023-05-07T23:18:47;7.90;;;6.95;;
58974;SDS011;44751;52.236;5.178;2023-05-07T23:21:13;10.68;;;7.63;;
58974;SDS011;44751;52.236;5.178;2023-05-07T23:23:40;9.85;;;8.00;;
58974;SDS011;44751;52.236;5.178;2023-05-07T23:26:13;7.88;;;7.07;;
58974;SDS011;44751;52.236;5.178;2023-05-07T23:28:39;12.05;;;7.22;;
58974;SDS011;44751;52.236;5.178;2023-05-07T23:31:07;8.80;;;7.45;;
58974;SDS011;44751;52.236;5.178;2023-05-07T23:33:34;8.80;;;7.90;;
58974;SDS011;44751;52.236;5.178;2023-05-07T23:36:01;9.23;;;7.32;;
58974;SDS011;44751;52.236;5.178;2023-05-07T23:38:30;12.85;;;7.07;;
58974;SDS011;44751;52.236;5.178;2023-05-07T23:41:00;9.60;;;7.32;;
58974;SDS011;44751;52.236;5.178;2023-05-07T23:43:26;7.57;;;6.85;;
58974;SDS011;44751;52.236;5.178;2023-05-07T23:45:53;7.13;;;6.43;;
58974;SDS011;44751;52.236;5.178;2023-05-07T23:48:19;7.13;;;6.43;;
58974;SDS011;44751;52.236;5.178;2023-05-07T23:50:46;7.45;;;6.47;;
58974;SDS011;44751;52.236;5.178;2023-05-07T23:53:13;9.63;;;6.30;;
58974;SDS011;44751;52.236;5.178;2023-05-07T23:55:40;7.20;;;6.47;;
58974;SDS011;44751;52.236;5.178;2023-05-07T23:58:06;10.43;;;7.20;;
